Time;durP1;ratioP1;P1;durP2;ratioP2;P2;SDS_P1;SDS_P2;PMS_P1;PMS_P2;Temp;Humidity;BMP_temperature;BMP_pressure;BME280_temperature;BME280_humidity;BME280_pressure;Samples;Min_cycle;Max_cycle;Signal;HPM_P1;HPM_P2
2022/02/15 00:01:13;;;;;;;3.42;0.73;;;6.60;73.50;;;;;;5136544;27;20023;-77
2022/02/15 00:03:38;;;;;;;3.80;0.77;;;6.70;73.40;;;;;;5136448;27;20118;-76
2022/02/15 00:06:04;;;;;;;2.80;1.08;;;6.70;73.60;;;;;;5136397;27;20482;-77
2022/02/15 00:08:29;;;;;;;2.33;0.98;;;6.60;73.50;;;;;;5136364;27;20022;-76
2022/02/15 00:10:56;;;;;;;3.33;0.93;;;6.60;73.90;;;;;;5136189;27;20023;-76
2022/02/15 00:13:21;;;;;;;3.85;1.33;;;6.60;73.80;;;;;;5136195;27;20054;-76
2022/02/15 00:15:47;;;;;;;4.97;1.00;;;6.60;73.90;;;;;;5136082;27;20136;-75
2022/02/15 00:18:12;;;;;;;4.82;1.02;;;6.50;74.00;;;;;;5136207;27;20506;-75
2022/02/15 00:20:38;;;;;;;2.30;0.93;;;6.50;73.90;;;;;;5136025;27;20024;-76
2022/02/15 00:23:04;;;;;;;6.55;1.10;;;6.60;73.80;;;;;;5136036;27;20467;-76
2022/02/15 00:25:30;;;;;;;2.13;0.77;;;6.60;73.70;;;;;;5135968;27;20378;-78
2022/02/15 00:27:56;;;;;;;1.20;0.70;;;6.60;72.90;;;;;;5135964;27;20027;-76
2022/02/15 00:30:22;;;;;;;5.53;1.15;;;6.60;73.20;;;;;;5117394;27;20080;-77
2022/02/15 00:32:48;;;;;;;5.05;0.88;;;6.60;72.90;;;;;;5135812;27;20498;-77
2022/02/15 00:35:14;;;;;;;5.38;1.02;;;6.60;73.00;;;;;;5117353;27;20023;-77
2022/02/15 00:37:40;;;;;;;11.48;1.05;;;6.50;72.90;;;;;;5135790;27;20019;-76
2022/02/15 00:40:06;;;;;;;3.42;0.90;;;6.50;72.70;;;;;;5135792;27;20300;-77
2022/02/15 00:42:32;;;;;;;4.90;1.10;;;6.50;72.50;;;;;;5135574;27;20098;-77
2022/02/15 00:44:58;;;;;;;5.35;1.15;;;6.50;72.90;;;;;;5135615;27;20046;-76
2022/02/15 00:47:23;;;;;;;7.80;0.85;;;6.50;72.70;;;;;;5135626;27;20019;-76
2022/02/15 00:49:49;;;;;;;4.32;1.00;;;6.50;73.10;;;;;;5135567;27;20030;-77
2022/02/15 00:52:14;;;;;;;5.15;1.23;;;6.40;73.10;;;;;;5135514;27;20031;-78
2022/02/15 00:54:40;;;;;;;3.35;1.10;;;6.40;73.20;;;;;;5135363;27;20072;-77
2022/02/15 00:57:05;;;;;;;2.00;0.70;;;6.40;72.80;;;;;;5135368;27;20023;-75
2022/02/15 00:59:31;;;;;;;3.33;1.20;;;6.40;72.60;;;;;;5135306;27;20088;-75
2022/02/15 01:01:56;;;;;;;4.25;1.40;;;6.50;72.40;;;;;;5135238;27;20033;-79
2022/02/15 01:04:22;;;;;;;5.05;1.17;;;6.50;72.40;;;;;;5135300;27;20097;-76
2022/02/15 01:06:48;;;;;;;3.72;1.08;;;6.60;72.30;;;;;;5134220;27;20035;-77
2022/02/15 01:09:13;;;;;;;2.90;0.75;;;6.50;72.30;;;;;;5135194;27;20015;-77
2022/02/15 01:11:39;;;;;;;6.13;1.00;;;6.50;72.40;;;;;;5135027;27;20034;-77
2022/02/15 01:14:05;;;;;;;3.55;0.85;;;6.50;72.30;;;;;;5134848;27;20022;-76
2022/02/15 01:16:31;;;;;;;4.63;1.17;;;6.50;72.20;;;;;;5116581;27;20035;-77
2022/02/15 01:18:56;;;;;;;4.65;1.27;;;6.50;72.20;;;;;;5135026;27;20031;-76
2022/02/15 01:21:22;;;;;;;3.17;0.88;;;6.50;72.10;;;;;;5135020;27;20027;-76
2022/02/15 01:23:48;;;;;;;3.67;0.95;;;6.60;71.80;;;;;;5134898;27;20551;-77
2022/02/15 01:26:13;;;;;;;6.15;0.90;;;6.60;71.10;;;;;;5134825;27;20023;-76
2022/02/15 01:28:39;;;;;;;2.85;0.75;;;6.70;71.40;;;;;;5134910;27;20053;-77
2022/02/15 01:31:05;;;;;;;5.32;0.80;;;6.70;71.30;;;;;;5134678;27;20070;-76
2022/02/15 01:33:31;;;;;;;5.07;1.00;;;6.70;71.20;;;;;;5124037;27;20015;-75
2022/02/15 01:35:59;;;;;;;3.60;0.82;;;6.70;71.40;;;;;;5129448;27;20062;-76
2022/02/15 01:38:25;;;;;;;3.88;0.80;;;6.70;71.50;;;;;;5134682;27;20031;-77
2022/02/15 01:40:50;;;;;;;3.20;0.70;;;6.70;71.20;;;;;;5134469;27;20026;-76
2022/02/15 01:43:16;;;;;;;2.67;0.70;;;6.60;69.90;;;;;;5134566;27;20023;-78
2022/02/15 01:45:41;;;;;;;3.13;0.75;;;6.50;70.70;;;;;;5116126;27;20495;-77
2022/02/15 01:48:08;;;;;;;5.22;0.80;;;6.50;69.00;;;;;;5134510;27;20020;-76
2022/02/15 01:50:34;;;;;;;3.17;0.68;;;6.50;68.90;;;;;;5134285;27;20024;-75
2022/02/15 01:53:00;;;;;;;2.08;0.90;;;6.50;68.90;;;;;;5134415;27;20033;-76
2022/02/15 01:55:25;;;;;;;4.88;0.63;;;6.50;69.60;;;;;;5134436;27;20030;-76
2022/02/15 01:57:51;;;;;;;3.00;1.00;;;6.50;68.50;;;;;;5134268;27;20023;-76
2022/02/15 02:00:18;;;;;;;1.65;0.63;;;6.60;68.80;;;;;;5134430;27;20367;-77
2022/02/15 02:02:44;;;;;;;2.25;0.50;;;6.60;68.90;;;;;;5134199;27;20019;-75
2022/02/15 02:07:55;;;;;;;4.70;0.70;;;6.60;69.20;;;;;;5134193;27;20050;-75
2022/02/15 02:10:21;;;;;;;2.60;0.60;;;6.60;69.40;;;;;;5134012;27;20027;-75
2022/02/15 02:12:47;;;;;;;4.82;0.93;;;6.60;69.50;;;;;;5134006;27;20096;-75
2022/02/15 02:15:22;;;;;;;5.70;1.33;;;6.70;69.10;;;;;;5133855;27;20050;-76
2022/02/15 02:17:48;;;;;;;3.15;0.50;;;6.60;68.80;;;;;;5133681;27;20028;-75
2022/02/15 02:20:15;;;;;;;5.10;0.95;;;6.60;69.00;;;;;;5133959;27;20521;-75
2022/02/15 02:22:41;;;;;;;3.45;1.10;;;6.70;69.00;;;;;;5134033;27;20031;-76
2022/02/15 02:25:08;;;;;;;3.90;0.70;;;6.70;69.00;;;;;;5134141;28;20031;-76
2022/02/15 02:27:33;;;;;;;1.83;0.85;;;6.70;69.10;;;;;;5115587;28;20061;-76
2022/02/15 02:29:59;;;;;;;4.25;0.73;;;6.70;69.40;;;;;;5133857;28;20023;-77
2022/02/15 02:32:28;;;;;;;4.63;0.73;;;6.70;69.40;;;;;;5133891;28;20031;-77
2022/02/15 02:34:55;;;;;;;7.43;1.17;;;6.70;69.60;;;;;;5133829;28;20023;-77
2022/02/15 02:37:22;;;;;;;3.40;0.88;;;6.70;69.60;;;;;;5133834;28;20033;-76
2022/02/15 02:39:50;;;;;;;5.28;0.88;;;6.60;69.70;;;;;;5133789;28;20024;-77
2022/02/15 02:42:18;;;;;;;8.05;0.82;;;6.60;70.10;;;;;;5133912;28;20050;-77
2022/02/15 02:44:44;;;;;;;3.92;0.70;;;6.60;70.60;;;;;;5115269;28;20076;-77
2022/02/15 02:47:10;;;;;;;5.03;0.90;;;6.60;70.90;;;;;;5133757;28;20523;-77
2022/02/15 02:49:36;;;;;;;4.28;0.70;;;6.60;70.80;;;;;;5133612;28;20027;-77
2022/02/15 02:52:02;;;;;;;4.53;1.00;;;6.60;71.10;;;;;;5133647;28;20067;-77
2022/02/15 02:54:28;;;;;;;4.97;1.15;;;6.60;71.40;;;;;;5133665;28;20035;-77
2022/02/15 02:56:54;;;;;;;3.33;0.68;;;6.60;71.50;;;;;;5133748;28;20475;-77
2022/02/15 02:59:20;;;;;;;2.67;0.60;;;6.60;71.40;;;;;;5133662;28;20030;-77
2022/02/15 03:01:46;;;;;;;2.17;0.95;;;6.70;71.90;;;;;;5133545;28;20105;-77
2022/02/15 03:04:11;;;;;;;2.15;0.80;;;6.70;71.60;;;;;;5133664;28;20035;-77
2022/02/15 03:06:37;;;;;;;3.50;0.60;;;6.70;71.60;;;;;;5133488;28;20103;-77
2022/02/15 03:09:04;;;;;;;4.18;0.63;;;6.70;71.50;;;;;;5133569;28;20023;-77
2022/02/15 03:11:30;;;;;;;3.90;0.80;;;6.70;71.40;;;;;;5133320;28;20031;-77
2022/02/15 03:13:55;;;;;;;4.53;0.60;;;6.70;71.70;;;;;;5115215;28;20020;-77
2022/02/15 03:16:23;;;;;;;2.55;0.45;;;6.60;71.90;;;;;;5133396;28;20051;-77
2022/02/15 03:18:49;;;;;;;3.85;0.80;;;6.60;71.90;;;;;;5133417;28;20352;-76
2022/02/15 03:21:15;;;;;;;1.75;0.90;;;6.60;72.10;;;;;;5133445;28;20023;-76
2022/02/15 03:23:40;;;;;;;2.50;0.73;;;6.60;72.20;;;;;;5133383;28;20019;-76
2022/02/15 03:26:06;;;;;;;1.55;0.60;;;6.60;72.10;;;;;;5115194;28;20118;-76
2022/02/15 03:28:32;;;;;;;2.88;0.63;;;6.60;71.90;;;;;;5133371;28;20019;-76
2022/02/15 03:30:58;;;;;;;1.60;0.35;;;6.60;72.40;;;;;;5135382;27;20034;-75
2022/02/15 03:33:23;;;;;;;3.83;0.60;;;6.60;72.10;;;;;;5137077;27;20043;-74
2022/02/15 03:35:49;;;;;;;1.73;0.52;;;6.60;71.90;;;;;;5136856;27;20027;-76
2022/02/15 03:38:15;;;;;;;2.13;0.80;;;6.60;71.80;;;;;;5136989;27;20065;-77
2022/02/15 03:43:24;;;;;;;4.63;0.95;;;6.60;72.10;;;;;;5137230;27;20435;-77
2022/02/15 03:45:50;;;;;;;4.30;0.95;;;6.60;72.00;;;;;;5136833;27;20105;-76
2022/02/15 03:48:15;;;;;;;6.18;0.68;;;6.50;72.00;;;;;;5136828;27;20050;-77
2022/02/15 03:50:41;;;;;;;7.38;0.82;;;6.50;72.40;;;;;;5118099;27;20095;-78
2022/02/15 03:53:07;;;;;;;1.67;0.57;;;6.50;72.90;;;;;;5136883;27;20059;-78
2022/02/15 03:55:33;;;;;;;6.80;0.77;;;6.50;73.00;;;;;;5136646;27;20068;-77
2022/02/15 03:57:58;;;;;;;2.47;0.80;;;6.50;73.00;;;;;;5136639;27;20038;-77
2022/02/15 04:00:24;;;;;;;4.07;0.90;;;6.40;72.90;;;;;;5152992;27;20020;-77
2022/02/15 04:02:50;;;;;;;4.40;0.80;;;6.40;73.20;;;;;;5151716;27;20027;-78
2022/02/15 04:05:15;;;;;;;4.32;0.57;;;6.30;73.30;;;;;;5136615;27;20379;-77
2022/02/15 04:07:41;;;;;;;2.00;0.70;;;6.40;73.40;;;;;;5136334;27;20068;-77
2022/02/15 04:10:07;;;;;;;5.78;1.20;;;6.40;73.30;;;;;;5136310;27;20164;-77
2022/02/15 04:12:33;;;;;;;3.38;0.90;;;6.40;73.20;;;;;;5117907;27;20024;-77
2022/02/15 04:14:58;;;;;;;3.35;0.90;;;6.50;73.30;;;;;;5136134;27;20046;-77
2022/02/15 04:17:24;;;;;;;3.83;1.02;;;6.40;73.30;;;;;;5136211;27;20475;-78
2022/02/15 04:19:49;;;;;;;4.03;1.30;;;6.40;73.30;;;;;;5136083;27;20027;-77
2022/02/15 04:22:15;;;;;;;4.75;1.63;;;6.40;73.50;;;;;;5136174;27;20486;-77
2022/02/15 04:24:40;;;;;;;5.80;1.50;;;6.30;73.70;;;;;;5136026;27;20467;-77
2022/02/15 04:27:06;;;;;;;7.75;2.38;;;6.20;74.00;;;;;;5136009;27;20031;-77
2022/02/15 04:29:32;;;;;;;3.22;1.90;;;6.20;74.30;;;;;;5135807;27;20030;-77
2022/02/15 04:31:58;;;;;;;5.40;1.73;;;6.10;74.70;;;;;;5135803;27;20507;-77
2022/02/15 04:34:23;;;;;;;3.30;1.70;;;6.10;75.00;;;;;;5135903;27;20018;-77
2022/02/15 04:36:49;;;;;;;4.25;1.58;;;6.00;75.20;;;;;;5135753;27;20479;-76
2022/02/15 04:39:14;;;;;;;2.80;1.27;;;6.00;75.20;;;;;;5117305;27;20115;-77
2022/02/15 04:41:40;;;;;;;7.03;1.17;;;6.00;75.10;;;;;;5117029;27;20023;-76
2022/02/15 04:44:07;;;;;;;4.00;1.73;;;6.00;75.10;;;;;;5135708;27;20015;-78
2022/02/15 04:46:32;;;;;;;8.15;2.03;;;6.10;75.10;;;;;;5135474;27;20035;-76
2022/02/15 04:48:59;;;;;;;7.63;1.75;;;6.10;74.90;;;;;;5135861;27;20028;-76
2022/02/15 04:51:25;;;;;;;4.07;2.00;;;6.10;74.80;;;;;;5135585;27;20063;-77
2022/02/15 04:53:52;;;;;;;5.53;2.42;;;6.10;74.80;;;;;;5135455;27;20019;-76
2022/02/15 04:56:17;;;;;;;7.35;3.05;;;6.10;74.80;;;;;;5135430;27;20066;-78
2022/02/15 04:58:43;;;;;;;6.90;3.20;;;6.20;74.90;;;;;;5135348;27;20050;-77
2022/02/15 05:01:13;;;;;;;8.73;3.60;;;6.20;74.70;;;;;;5135249;27;20024;-76
2022/02/15 05:03:39;;;;;;;8.85;3.55;;;6.30;74.80;;;;;;5135143;27;20105;-77
2022/02/15 05:06:04;;;;;;;8.70;4.30;;;6.30;74.80;;;;;;5135212;27;20438;-77
2022/02/15 05:08:30;;;;;;;9.02;4.22;;;6.30;74.80;;;;;;5135164;27;20436;-77
2022/02/15 05:10:55;;;;;;;7.30;3.85;;;6.20;74.70;;;;;;5135039;27;20034;-77
2022/02/15 05:13:21;;;;;;;7.47;2.97;;;6.30;74.80;;;;;;5116627;27;20050;-76
2022/02/15 05:15:46;;;;;;;6.57;3.30;;;6.30;74.70;;;;;;5134798;27;20054;-77
2022/02/15 05:18:12;;;;;;;5.70;3.40;;;6.30;74.50;;;;;;5135091;27;20054;-77
2022/02/15 05:20:38;;;;;;;8.95;2.95;;;6.40;74.50;;;;;;5134886;27;20031;-77
2022/02/15 05:23:03;;;;;;;7.38;3.58;;;6.40;74.30;;;;;;5134903;27;20027;-77
2022/02/15 05:25:29;;;;;;;7.32;4.18;;;6.40;74.20;;;;;;5134808;27;20475;-76
2022/02/15 05:27:57;;;;;;;4.75;3.58;;;6.40;75.10;;;;;;5134805;27;20094;-77
2022/02/15 05:30:23;;;;;;;5.05;3.33;;;6.40;74.30;;;;;;5134497;27;20114;-76
2022/02/15 05:32:48;;;;;;;3.63;2.50;;;6.40;74.30;;;;;;5134558;27;20152;-76
2022/02/15 05:35:14;;;;;;;7.35;3.13;;;6.50;74.40;;;;;;5116348;27;20494;-76
2022/02/15 05:37:39;;;;;;;4.72;2.72;;;6.40;74.20;;;;;;5134592;27;20035;-77
2022/02/15 05:40:07;;;;;;;4.25;2.53;;;6.40;74.00;;;;;;5134596;27;20019;-78
2022/02/15 05:42:33;;;;;;;3.78;2.15;;;6.40;74.10;;;;;;5134404;27;20031;-77
2022/02/15 05:44:59;;;;;;;10.23;3.35;;;6.40;74.30;;;;;;5134606;27;20374;-77
2022/02/15 05:47:24;;;;;;;4.95;2.42;;;6.30;74.50;;;;;;5134426;27;20447;-77
2022/02/15 05:52:34;;;;;;;4.80;2.38;;;6.40;74.40;;;;;;5133729;27;20046;-77
2022/02/15 05:55:00;;;;;;;7.32;2.67;;;6.50;74.40;;;;;;5134284;27;20347;-78
2022/02/15 05:57:25;;;;;;;5.30;2.30;;;6.50;74.30;;;;;;5115961;27;20457;-78
2022/02/15 05:59:51;;;;;;;3.40;2.20;;;6.50;74.30;;;;;;5134078;27;20038;-78
2022/02/15 06:02:17;;;;;;;3.28;2.10;;;6.50;74.40;;;;;;5134191;27;20025;-78
2022/02/15 06:04:43;;;;;;;4.43;2.22;;;6.50;74.30;;;;;;5134129;27;20421;-77
2022/02/15 06:07:08;;;;;;;5.68;2.90;;;6.50;74.30;;;;;;5134180;27;20030;-78
2022/02/15 06:09:34;;;;;;;6.45;4.03;;;6.50;74.30;;;;;;5134196;27;20023;-78
2022/02/15 06:11:59;;;;;;;7.97;4.25;;;6.50;74.20;;;;;;5133976;27;20466;-78
2022/02/15 06:14:25;;;;;;;6.88;3.78;;;6.50;74.20;;;;;;5133809;27;20066;-78
2022/02/15 06:16:51;;;;;;;6.20;3.47;;;6.50;74.30;;;;;;5133948;27;20027;-77
2022/02/15 06:19:16;;;;;;;5.05;3.10;;;6.50;74.40;;;;;;5134486;27;20098;-75
2022/02/15 06:21:42;;;;;;;7.22;3.97;;;6.50;74.50;;;;;;5133762;27;20364;-74
2022/02/15 06:24:07;;;;;;;5.03;3.30;;;6.50;74.50;;;;;;5133975;27;20015;-78
2022/02/15 06:26:33;;;;;;;4.28;3.30;;;6.40;74.50;;;;;;5133726;28;20023;-77
2022/02/15 06:28:59;;;;;;;4.00;3.00;;;6.50;74.60;;;;;;5133454;28;20023;-79
2022/02/15 06:31:25;;;;;;;9.50;3.50;;;6.40;74.60;;;;;;5133516;28;20084;-79
2022/02/15 06:33:50;;;;;;;10.80;4.43;;;6.40;74.80;;;;;;5137462;28;20034;-76
2022/02/15 06:36:16;;;;;;;12.32;4.32;;;6.40;74.80;;;;;;5143821;28;20027;-76
2022/02/15 06:38:42;;;;;;;7.07;3.38;;;6.40;74.90;;;;;;5137389;28;20483;-77
2022/02/15 06:41:09;;;;;;;5.70;2.97;;;6.50;75.00;;;;;;5135364;28;20459;-76
2022/02/15 06:43:35;;;;;;;4.93;3.17;;;6.50;75.10;;;;;;5135580;28;20102;-76
2022/02/15 06:46:01;;;;;;;9.60;3.28;;;6.40;75.10;;;;;;5135654;28;20027;-77
2022/02/15 06:48:26;;;;;;;7.97;3.45;;;6.50;75.20;;;;;;5154589;27;20042;-76
2022/02/15 06:50:52;;;;;;;4.95;2.72;;;6.50;75.30;;;;;;5158380;27;20023;-76
2022/02/15 06:53:18;;;;;;;3.25;2.22;;;6.50;75.10;;;;;;5158356;28;20030;-76
2022/02/15 06:55:44;;;;;;;3.83;1.73;;;6.50;75.00;;;;;;5157410;28;20062;-77
2022/02/15 06:58:09;;;;;;;6.18;3.42;;;6.50;74.90;;;;;;5145463;28;20028;-77
2022/02/15 07:00:35;;;;;;;9.48;4.40;;;6.50;74.70;;;;;;5136255;28;20015;-76
2022/02/15 07:03:01;;;;;;;5.40;3.65;;;6.50;74.60;;;;;;5136585;28;20027;-79
2022/02/15 07:05:28;;;;;;;5.28;3.60;;;6.50;74.50;;;;;;5136690;27;20023;-77
2022/02/15 07:07:53;;;;;;;2.28;1.38;;;6.50;74.70;;;;;;5137819;27;20033;-77
2022/02/15 07:10:19;;;;;;;3.00;1.90;;;6.50;74.40;;;;;;5137402;27;20098;-76
2022/02/15 07:12:45;;;;;;;3.25;1.50;;;6.40;74.50;;;;;;5118868;27;20035;-77
2022/02/15 07:15:10;;;;;;;2.85;1.50;;;6.50;74.70;;;;;;5137220;27;20035;-76
2022/02/15 07:17:37;;;;;;;1.38;1.27;;;6.40;75.70;;;;;;5137058;27;20479;-75
2022/02/15 07:20:04;;;;;;;1.52;1.15;;;6.40;75.20;;;;;;5137197;27;20379;-77
2022/02/15 07:22:30;;;;;;;6.40;1.85;;;6.40;75.50;;;;;;5137526;27;20011;-85
2022/02/15 07:24:55;;;;;;;4.47;1.10;;;6.50;81.30;;;;;;5138017;27;20029;-81
2022/02/15 07:27:22;;;;;;;3.42;1.40;;;6.70;77.70;;;;;;5137140;27;20023;-82
2022/02/15 07:29:48;;;;;;;2.15;1.27;;;7.00;76.90;;;;;;5137204;27;20467;-82
2022/02/15 07:32:14;;;;;;;2.30;1.48;;;7.30;77.80;;;;;;5137082;27;20043;-82
2022/02/15 07:34:39;;;;;;;1.83;1.30;;;7.40;74.90;;;;;;5136972;27;20046;-83
2022/02/15 07:37:05;;;;;;;3.00;1.23;;;7.60;74.40;;;;;;5137020;27;20106;-82
2022/02/15 07:39:30;;;;;;;4.47;1.02;;;7.80;75.70;;;;;;5137019;27;20462;-79
2022/02/15 07:41:56;;;;;;;3.10;1.10;;;8.30;76.30;;;;;;5136834;27;20039;-82
2022/02/15 07:44:22;;;;;;;2.40;1.25;;;8.70;72.70;;;;;;5136652;27;20026;-78
2022/02/15 07:46:48;;;;;;;3.67;0.93;;;9.00;70.00;;;;;;5136868;27;20026;-80
2022/02/15 07:49:16;;;;;;;2.58;0.98;;;9.50;68.80;;;;;;5136625;27;20464;-77
2022/02/15 07:51:42;;;;;;;2.47;1.00;;;9.20;65.70;;;;;;5136436;27;20136;-80
2022/02/15 07:54:07;;;;;;;1.45;0.88;;;8.90;65.10;;;;;;5136562;27;20463;-79
2022/02/15 07:56:34;;;;;;;1.90;1.10;;;8.60;65.80;;;;;;5136378;27;20108;-76
2022/02/15 07:58:59;;;;;;;1.80;1.30;;;8.40;66.60;;;;;;5136376;27;20018;-76
2022/02/15 08:01:25;;;;;;;2.53;1.60;;;8.20;67.40;;;;;;5136232;27;20027;-77
2022/02/15 08:03:52;;;;;;;3.65;1.88;;;8.10;68.00;;;;;;5135979;27;20031;-78
2022/02/15 08:06:18;;;;;;;2.40;1.42;;;8.00;68.50;;;;;;5135888;27;20019;-77
2022/02/15 08:08:44;;;;;;;2.15;1.45;;;7.70;69.70;;;;;;5136098;27;20029;-78
2022/02/15 08:11:09;;;;;;;2.40;1.42;;;7.70;70.10;;;;;;5135892;27;20027;-77
2022/02/15 08:13:37;;;;;;;3.60;1.42;;;7.60;70.30;;;;;;5136047;27;20030;-78
2022/02/15 08:16:03;;;;;;;2.28;1.50;;;7.60;70.20;;;;;;5135199;27;20122;-79
2022/02/15 08:18:28;;;;;;;2.40;1.60;;;7.60;70.20;;;;;;5135977;27;20095;-78
2022/02/15 08:20:54;;;;;;;3.00;1.40;;;7.60;70.30;;;;;;5136055;27;20064;-80
2022/02/15 08:23:20;;;;;;;2.45;1.70;;;7.60;70.40;;;;;;5136028;27;20471;-80
2022/02/15 08:25:46;;;;;;;5.65;1.75;;;7.70;70.60;;;;;;5135842;27;20408;-78
2022/02/15 08:28:13;;;;;;;4.90;1.88;;;7.70;70.50;;;;;;5135688;27;20026;-78
2022/02/15 08:30:40;;;;;;;2.35;1.10;;;7.70;70.60;;;;;;5135604;27;20377;-78
2022/02/15 08:33:05;;;;;;;4.75;1.35;;;7.70;69.40;;;;;;5117158;27;20050;-78
2022/02/15 08:35:31;;;;;;;1.20;0.90;;;7.50;69.80;;;;;;5135612;27;20463;-78
2022/02/15 08:37:56;;;;;;;1.35;1.05;;;7.40;70.80;;;;;;5135610;27;20031;-78
2022/02/15 08:40:22;;;;;;;2.60;1.00;;;7.40;70.90;;;;;;5135759;27;20019;-79
2022/02/15 08:42:48;;;;;;;3.13;1.35;;;7.20;71.40;;;;;;5116995;27;20055;-78
2022/02/15 08:45:13;;;;;;;3.63;1.40;;;7.20;71.50;;;;;;5135517;27;20027;-77
2022/02/15 08:47:39;;;;;;;4.25;1.40;;;7.20;71.90;;;;;;5135022;27;20031;-77
2022/02/15 08:50:08;;;;;;;3.03;1.15;;;6.90;73.50;;;;;;5135400;27;20030;-77
2022/02/15 08:52:36;;;;;;;4.78;1.77;;;6.80;74.00;;;;;;5134970;27;20038;-77
2022/02/15 08:55:05;;;;;;;4.25;2.15;;;6.70;74.80;;;;;;5135299;27;20011;-81
2022/02/15 08:57:30;;;;;;;6.80;2.53;;;6.70;75.50;;;;;;5135036;27;20025;-78
2022/02/15 08:59:56;;;;;;;2.58;1.70;;;6.60;76.70;;;;;;5135008;27;20055;-80
2022/02/15 09:02:23;;;;;;;2.97;1.90;;;6.60;76.20;;;;;;5134903;27;20478;-78
2022/02/15 09:04:49;;;;;;;7.18;3.03;;;6.40;78.10;;;;;;5134706;27;20492;-77
2022/02/15 09:07:14;;;;;;;4.93;3.35;;;6.20;78.90;;;;;;5134505;27;20035;-78
2022/02/15 09:09:40;;;;;;;5.30;3.63;;;6.10;80.30;;;;;;5134896;27;20046;-79
2022/02/15 09:12:06;;;;;;;6.90;4.60;;;6.00;80.80;;;;;;5116671;27;20027;-79
2022/02/15 09:14:32;;;;;;;4.53;3.85;;;5.80;83.10;;;;;;5134497;27;20027;-77
2022/02/15 09:17:01;;;;;;;10.38;5.68;;;5.80;82.00;;;;;;5134646;27;20387;-78
2022/02/15 09:19:28;;;;;;;3.90;2.83;;;5.70;83.00;;;;;;5134576;27;20027;-78
2022/02/15 09:21:55;;;;;;;4.68;3.17;;;5.60;83.30;;;;;;5116376;27;20053;-80
2022/02/15 09:24:21;;;;;;;4.68;3.20;;;5.40;84.00;;;;;;5134549;27;20076;-80
2022/02/15 09:26:47;;;;;;;4.20;3.20;;;5.40;84.40;;;;;;5134463;27;20039;-80
2022/02/15 09:29:13;;;;;;;5.32;3.70;;;5.50;84.40;;;;;;5115229;27;20029;-79
2022/02/15 09:31:39;;;;;;;7.05;4.00;;;5.60;83.90;;;;;;5134363;27;20031;-79
2022/02/15 09:34:05;;;;;;;8.07;3.63;;;5.50;84.50;;;;;;5115723;27;20019;-79
2022/02/15 09:36:31;;;;;;;4.70;3.33;;;5.60;84.50;;;;;;5135238;27;20027;-78
2022/02/15 09:38:57;;;;;;;3.17;2.70;;;5.70;83.60;;;;;;5134874;27;20039;-78
2022/02/15 09:41:22;;;;;;;2.28;1.10;;;5.70;83.10;;;;;;5134536;27;20015;-79
2022/02/15 09:43:48;;;;;;;2.40;1.30;;;5.70;81.30;;;;;;5134404;27;20035;-80
2022/02/15 09:46:15;;;;;;;1.88;1.00;;;5.40;82.20;;;;;;5134397;27;20023;-79
2022/02/15 09:48:42;;;;;;;2.17;1.15;;;5.40;82.10;;;;;;5134350;27;20029;-80
2022/02/15 09:51:09;;;;;;;3.22;1.23;;;5.30;82.30;;;;;;5115847;27;20050;-79
2022/02/15 09:53:36;;;;;;;4.35;2.25;;;5.30;82.90;;;;;;5134053;27;20031;-79
2022/02/15 09:56:02;;;;;;;4.50;1.50;;;5.40;83.00;;;;;;5133867;27;20096;-78
2022/02/15 09:58:28;;;;;;;1.83;1.02;;;5.30;83.30;;;;;;5133772;27;20383;-77
2022/02/15 10:00:53;;;;;;;1.17;0.90;;;5.40;82.20;;;;;;5134045;27;20022;-78
2022/02/15 10:03:19;;;;;;;1.10;1.00;;;5.50;82.60;;;;;;5134056;27;20379;-77
2022/02/15 10:05:50;;;;;;;1.48;0.88;;;5.60;81.80;;;;;;5133955;27;20095;-79
2022/02/15 10:08:25;;;;;;;4.72;0.98;;;5.70;81.60;;;;;;5134163;27;20110;-80
2022/02/15 10:10:50;;;;;;;2.22;1.02;;;5.70;80.80;;;;;;5133882;27;20022;-80
2022/02/15 10:13:16;;;;;;;3.17;0.65;;;5.70;81.50;;;;;;5134078;27;20027;-80
2022/02/15 10:15:44;;;;;;;1.48;0.60;;;5.80;80.80;;;;;;5111934;28;20053;-79
2022/02/15 10:18:25;;;;;;;1.67;0.57;;;5.90;80.40;;;;;;5113507;28;20400;-79
2022/02/15 10:20:56;;;;;;;2.13;0.90;;;5.80;81.20;;;;;;5113126;28;20094;-79
2022/02/15 10:23:30;;;;;;;1.52;0.80;;;5.90;80.90;;;;;;5112074;28;20020;-79
2022/02/15 10:25:57;;;;;;;1.52;0.80;;;6.00;80.30;;;;;;5113298;28;20102;-79
2022/02/15 10:28:28;;;;;;;2.08;0.45;;;5.90;79.70;;;;;;5113249;28;20020;-79
2022/02/15 10:30:55;;;;;;;3.08;0.77;;;6.00;79.00;;;;;;5114011;28;20106;-78
2022/02/15 10:33:29;;;;;;;2.95;1.10;;;6.00;79.60;;;;;;5113848;28;20058;-79
2022/02/15 10:36:09;;;;;;;2.78;1.38;;;6.00;79.80;;;;;;5113419;28;20034;-79
2022/02/15 10:38:36;;;;;;;1.45;0.68;;;6.00;79.50;;;;;;5113183;28;20030;-79
2022/02/15 10:41:04;;;;;;;2.60;1.02;;;5.90;80.40;;;;;;5117144;28;20024;-80
2022/02/15 10:43:45;;;;;;;2.78;1.55;;;5.90;79.80;;;;;;5117160;28;20459;-79
2022/02/15 10:46:15;;;;;;;2.97;1.42;;;5.80;80.70;;;;;;5117362;28;20387;-80
2022/02/15 10:48:41;;;;;;;2.72;1.45;;;6.00;80.60;;;;;;5117448;28;20023;-78
2022/02/15 10:51:07;;;;;;;2.67;1.13;;;6.30;79.60;;;;;;5117121;28;20028;-79
2022/02/15 10:53:34;;;;;;;1.30;1.17;;;6.50;79.10;;;;;;5116873;28;20120;-80
2022/02/15 10:56:00;;;;;;;3.40;1.40;;;6.60;78.10;;;;;;5117097;28;20019;-79
2022/02/15 10:58:27;;;;;;;2.30;1.10;;;7.00;78.10;;;;;;5117144;28;20027;-79
2022/02/15 11:00:58;;;;;;;3.67;1.67;;;7.30;75.30;;;;;;5116801;28;20023;-79
2022/02/15 11:03:28;;;;;;;2.65;1.48;;;7.40;73.80;;;;;;5116985;27;20035;-79
2022/02/15 11:05:53;;;;;;;1.27;0.90;;;7.60;73.50;;;;;;5116635;28;20486;-78
2022/02/15 11:08:20;;;;;;;1.45;1.00;;;7.70;73.60;;;;;;5116551;28;20114;-79
2022/02/15 11:11:05;;;;;;;3.60;1.05;;;7.80;70.70;;;;;;5116363;28;20107;-79
2022/02/15 11:13:34;;;;;;;1.05;0.95;;;8.10;69.20;;;;;;5116655;28;20472;-79
2022/02/15 11:16:02;;;;;;;1.60;1.17;;;8.10;68.40;;;;;;5132787;27;20047;-78
2022/02/15 11:18:32;;;;;;;2.90;1.20;;;8.30;69.00;;;;;;5136887;27;20028;-79
2022/02/15 11:21:01;;;;;;;3.13;1.30;;;8.70;66.60;;;;;;5137134;27;20031;-79
2022/02/15 11:23:32;;;;;;;1.85;1.10;;;8.70;66.50;;;;;;5137030;27;20478;-74
2022/02/15 11:26:17;;;;;;;3.03;1.17;;;9.10;65.70;;;;;;5136941;27;20364;-78
2022/02/15 11:28:46;;;;;;;2.88;1.23;;;9.00;65.10;;;;;;5118616;27;20072;-78
2022/02/15 11:31:43;;;;;;;1.73;1.40;;;8.90;64.10;;;;;;5136951;27;20027;-78
2022/02/15 11:34:12;;;;;;;;;;;8.20;66.00;;;;;;5136384;27;20476;-77
2022/02/15 11:36:50;;;;;;;2.85;1.10;;;8.30;66.30;;;;;;5135904;27;20231;-78
2022/02/15 11:39:22;;;;;;;3.53;1.50;;;8.20;67.60;;;;;;5136652;27;20106;-78
2022/02/15 11:41:53;;;;;;;2.83;1.60;;;8.30;66.70;;;;;;5136666;27;20023;-77
2022/02/15 11:44:30;;;;;;;2.53;1.23;;;8.10;68.40;;;;;;5136626;27;20416;-78
2022/02/15 11:46:55;;;;;;;2.97;1.55;;;7.70;68.90;;;;;;5136400;27;20054;-77
2022/02/15 11:49:25;;;;;;;1.80;1.45;;;7.60;68.40;;;;;;5136193;27;20471;-78
2022/02/15 11:51:50;;;;;;;2.67;1.65;;;7.60;67.80;;;;;;5134864;27;20039;-78
2022/02/15 11:54:18;;;;;;;2.83;1.58;;;7.30;67.60;;;;;;5135726;27;20060;-77
2022/02/15 11:56:46;;;;;;;2.30;1.55;;;7.10;68.00;;;;;;5136263;27;20023;-78
2022/02/15 11:59:17;;;;;;;5.80;2.05;;;7.00;69.60;;;;;;5136123;27;20024;-77
2022/02/15 12:01:53;;;;;;;3.90;2.00;;;7.20;69.90;;;;;;5136035;27;20048;-79
2022/02/15 12:04:19;;;;;;;6.47;1.60;;;7.20;70.20;;;;;;5135796;27;20020;-78
2022/02/15 12:06:47;;;;;;;4.65;1.95;;;7.30;68.30;;;;;;5136105;27;20035;-77
2022/02/15 12:09:15;;;;;;;4.68;2.05;;;7.30;69.70;;;;;;5135764;27;20524;-77
2022/02/15 12:11:42;;;;;;;4.03;1.75;;;7.50;68.30;;;;;;5135544;27;20039;-77
2022/02/15 12:14:09;;;;;;;3.47;1.52;;;7.60;68.80;;;;;;5135818;27;20024;-76
2022/02/15 12:16:49;;;;;;;2.28;1.55;;;7.30;69.20;;;;;;5135811;27;20063;-77
2022/02/15 12:19:30;;;;;;;3.72;1.75;;;7.30;69.20;;;;;;5135775;27;20023;-78
2022/02/15 12:22:00;;;;;;;4.40;1.55;;;7.30;69.00;;;;;;5135295;27;20030;-79
2022/02/15 12:24:28;;;;;;;2.22;1.60;;;7.50;67.40;;;;;;5117262;27;20087;-78
2022/02/15 12:26:56;;;;;;;3.17;1.70;;;7.70;67.00;;;;;;5135648;27;20481;-77
2022/02/15 12:29:22;;;;;;;2.92;1.98;;;8.00;66.60;;;;;;5135614;27;20042;-78
2022/02/15 12:31:58;;;;;;;3.33;2.00;;;8.70;65.10;;;;;;5135202;27;20038;-77
2022/02/15 12:34:24;;;;;;;5.07;2.50;;;9.30;61.50;;;;;;5135239;27;20405;-78
2022/02/15 12:36:50;;;;;;;4.70;2.65;;;9.20;60.30;;;;;;5135429;27;20431;-79
2022/02/15 12:39:17;;;;;;;4.13;2.17;;;9.40;59.90;;;;;;5135830;27;20114;-79
2022/02/15 12:41:44;;;;;;;2.72;1.42;;;9.30;59.90;;;;;;5135892;27;20038;-79
2022/02/15 12:44:10;;;;;;;5.85;1.70;;;9.10;59.10;;;;;;5136127;27;20064;-78
2022/02/15 12:46:36;;;;;;;5.47;1.73;;;8.70;60.30;;;;;;5136081;27;20019;-79
2022/02/15 12:49:03;;;;;;;3.33;1.83;;;8.60;61.20;;;;;;5136556;27;20050;-77
2022/02/15 12:51:33;;;;;;;3.25;1.75;;;8.70;61.60;;;;;;5117252;27;20399;-78
2022/02/15 12:54:00;;;;;;;3.60;1.85;;;8.90;61.50;;;;;;5136282;27;20027;-79
2022/02/15 12:56:29;;;;;;;3.83;1.75;;;9.00;61.00;;;;;;5136392;27;20027;-79
2022/02/15 12:58:58;;;;;;;2.42;1.52;;;9.00;60.50;;;;;;5136309;27;20015;-79
2022/02/15 13:01:26;;;;;;;2.25;1.63;;;9.00;60.00;;;;;;5136175;27;20019;-78
2022/02/15 13:03:53;;;;;;;2.08;1.48;;;8.90;61.40;;;;;;5135774;27;20106;-78